sensor_id;sensor_type;location;lat;lon;timestamp;P1;durP1;ratioP1;P2;durP2;ratioP2
64873;SDS011;51367;45.204;38.576;2023-05-14T00:02:10;2.45;;;1.75;;
64873;SDS011;51367;45.204;38.576;2023-05-14T00:04:36;2.35;;;2.15;;
64873;SDS011;51367;45.204;38.576;2023-05-14T00:07:02;1.77;;;1.63;;
64873;SDS011;51367;45.204;38.576;2023-05-14T00:09:27;5.05;;;2.30;;
64873;SDS011;51367;45.204;38.576;2023-05-14T00:11:54;3.00;;;2.22;;
64873;SDS011;51367;45.204;38.576;2023-05-14T00:14:21;2.65;;;2.45;;
64873;SDS011;51367;45.204;38.576;2023-05-14T00:16:46;2.65;;;2.03;;
64873;SDS011;51367;45.204;38.576;2023-05-14T00:19:12;2.72;;;2.08;;
64873;SDS011;51367;45.204;38.576;2023-05-14T00:21:38;3.47;;;2.58;;
64873;SDS011;51367;45.204;38.576;2023-05-14T00:24:04;2.15;;;2.05;;
64873;SDS011;51367;45.204;38.576;2023-05-14T00:26:30;2.53;;;2.15;;
64873;SDS011;51367;45.204;38.576;2023-05-14T00:28:56;2.30;;;2.10;;
64873;SDS011;51367;45.204;38.576;2023-05-14T00:31:22;4.53;;;3.70;;
64873;SDS011;51367;45.204;38.576;2023-05-14T00:33:48;2.78;;;2.28;;
64873;SDS011;51367;45.204;38.576;2023-05-14T00:36:14;4.85;;;2.08;;
64873;SDS011;51367;45.204;38.576;2023-05-14T00:38:40;2.00;;;1.90;;
64873;SDS011;51367;45.204;38.576;2023-05-14T00:41:06;2.45;;;1.60;;
64873;SDS011;51367;45.204;38.576;2023-05-14T00:43:32;2.10;;;2.00;;
64873;SDS011;51367;45.204;38.576;2023-05-14T00:45:58;1.63;;;1.52;;
64873;SDS011;51367;45.204;38.576;2023-05-14T00:48:25;2.10;;;1.92;;
64873;SDS011;51367;45.204;38.576;2023-05-14T00:50:51;2.05;;;1.85;;
64873;SDS011;51367;45.204;38.576;2023-05-14T00:53:18;1.55;;;1.45;;
64873;SDS011;51367;45.204;38.576;2023-05-14T00:55:45;2.40;;;1.85;;
64873;SDS011;51367;45.204;38.576;2023-05-14T00:58:13;3.13;;;1.83;;
64873;SDS011;51367;45.204;38.576;2023-05-14T01:00:39;1.40;;;1.30;;
64873;SDS011;51367;45.204;38.576;2023-05-14T01:03:06;2.22;;;2.05;;
64873;SDS011;51367;45.204;38.576;2023-05-14T01:14:57;1.80;;;1.70;;
64873;SDS011;51367;45.204;38.576;2023-05-14T01:17:37;1.40;;;1.30;;
64873;SDS011;51367;45.204;38.576;2023-05-14T01:20:07;1.52;;;1.42;;
64873;SDS011;51367;45.204;38.576;2023-05-14T01:22:33;3.55;;;3.17;;
64873;SDS011;51367;45.204;38.576;2023-05-14T01:24:59;2.55;;;2.35;;
64873;SDS011;51367;45.204;38.576;2023-05-14T01:27:30;1.55;;;1.45;;
64873;SDS011;51367;45.204;38.576;2023-05-14T01:30:12;1.77;;;1.67;;
64873;SDS011;51367;45.204;38.576;2023-05-14T01:32:52;1.42;;;1.33;;
64873;SDS011;51367;45.204;38.576;2023-05-14T01:35:21;2.55;;;1.85;;
64873;SDS011;51367;45.204;38.576;2023-05-14T01:37:49;1.65;;;1.50;;
64873;SDS011;51367;45.204;38.576;2023-05-14T01:40:17;2.80;;;2.38;;
64873;SDS011;51367;45.204;38.576;2023-05-14T01:42:43;3.00;;;1.27;;
64873;SDS011;51367;45.204;38.576;2023-05-14T01:45:10;2.75;;;2.20;;
64873;SDS011;51367;45.204;38.576;2023-05-14T01:47:36;12.27;;;2.25;;
64873;SDS011;51367;45.204;38.576;2023-05-14T01:50:02;1.58;;;1.48;;
64873;SDS011;51367;45.204;38.576;2023-05-14T01:52:28;12.93;;;2.17;;
64873;SDS011;51367;45.204;38.576;2023-05-14T01:54:54;3.53;;;2.03;;
64873;SDS011;51367;45.204;38.576;2023-05-14T01:57:20;2.63;;;1.75;;
64873;SDS011;51367;45.204;38.576;2023-05-14T01:59:46;1.83;;;1.73;;
64873;SDS011;51367;45.204;38.576;2023-05-14T02:02:11;2.63;;;2.42;;
64873;SDS011;51367;45.204;38.576;2023-05-14T02:04:38;2.90;;;2.03;;
64873;SDS011;51367;45.204;38.576;2023-05-14T02:07:04;1.48;;;1.38;;
64873;SDS011;51367;45.204;38.576;2023-05-14T02:09:30;1.92;;;1.73;;
64873;SDS011;51367;45.204;38.576;2023-05-14T02:11:56;4.70;;;2.05;;
64873;SDS011;51367;45.204;38.576;2023-05-14T02:14:22;2.95;;;1.85;;
64873;SDS011;51367;45.204;38.576;2023-05-14T02:16:48;8.90;;;2.08;;
64873;SDS011;51367;45.204;38.576;2023-05-14T02:19:15;0.85;;;0.85;;
64873;SDS011;51367;45.204;38.576;2023-05-14T02:21:41;1.52;;;1.42;;
64873;SDS011;51367;45.204;38.576;2023-05-14T02:24:07;2.85;;;2.30;;
64873;SDS011;51367;45.204;38.576;2023-05-14T02:26:33;2.75;;;2.08;;
64873;SDS011;51367;45.204;38.576;2023-05-14T02:28:59;2.22;;;2.03;;
64873;SDS011;51367;45.204;38.576;2023-05-14T02:31:25;3.65;;;1.88;;
64873;SDS011;51367;45.204;38.576;2023-05-14T02:33:50;12.23;;;2.38;;
64873;SDS011;51367;45.204;38.576;2023-05-14T02:36:16;1.88;;;1.77;;
64873;SDS011;51367;45.204;38.576;2023-05-14T02:38:42;2.13;;;1.73;;
64873;SDS011;51367;45.204;38.576;2023-05-14T02:41:08;1.52;;;1.42;;
64873;SDS011;51367;45.204;38.576;2023-05-14T02:43:34;1.70;;;1.60;;
64873;SDS011;51367;45.204;38.576;2023-05-14T02:46:00;1.75;;;1.65;;
64873;SDS011;51367;45.204;38.576;2023-05-14T02:48:26;1.85;;;1.52;;
64873;SDS011;51367;45.204;38.576;2023-05-14T02:50:52;2.70;;;2.25;;
64873;SDS011;51367;45.204;38.576;2023-05-14T02:53:18;2.67;;;1.60;;
64873;SDS011;51367;45.204;38.576;2023-05-14T02:55:44;2.17;;;2.03;;
64873;SDS011;51367;45.204;38.576;2023-05-14T02:58:10;2.40;;;1.88;;
64873;SDS011;51367;45.204;38.576;2023-05-14T03:00:36;2.63;;;2.20;;
64873;SDS011;51367;45.204;38.576;2023-05-14T03:03:02;1.95;;;1.85;;
64873;SDS011;51367;45.204;38.576;2023-05-14T03:05:28;1.85;;;1.75;;
64873;SDS011;51367;45.204;38.576;2023-05-14T03:07:54;2.10;;;1.90;;
64873;SDS011;51367;45.204;38.576;2023-05-14T03:10:19;2.30;;;1.95;;
64873;SDS011;51367;45.204;38.576;2023-05-14T03:12:45;1.80;;;1.70;;
64873;SDS011;51367;45.204;38.576;2023-05-14T03:15:11;2.30;;;1.95;;
64873;SDS011;51367;45.204;38.576;2023-05-14T03:17:37;2.85;;;1.65;;
64873;SDS011;51367;45.204;38.576;2023-05-14T03:20:03;3.13;;;2.83;;
64873;SDS011;51367;45.204;38.576;2023-05-14T03:22:30;5.82;;;4.25;;
64873;SDS011;51367;45.204;38.576;2023-05-14T03:24:56;3.95;;;3.45;;
64873;SDS011;51367;45.204;38.576;2023-05-14T03:27:22;3.72;;;2.33;;
64873;SDS011;51367;45.204;38.576;2023-05-14T03:29:48;2.72;;;2.42;;
64873;SDS011;51367;45.204;38.576;2023-05-14T03:32:14;8.68;;;1.92;;
64873;SDS011;51367;45.204;38.576;2023-05-14T03:34:39;2.55;;;2.35;;
64873;SDS011;51367;45.204;38.576;2023-05-14T03:37:06;7.05;;;5.22;;
64873;SDS011;51367;45.204;38.576;2023-05-14T03:39:32;6.45;;;3.55;;
64873;SDS011;51367;45.204;38.576;2023-05-14T03:41:58;6.47;;;5.75;;
64873;SDS011;51367;45.204;38.576;2023-05-14T03:44:24;8.85;;;2.38;;
64873;SDS011;51367;45.204;38.576;2023-05-14T03:46:50;2.92;;;2.50;;
64873;SDS011;51367;45.204;38.576;2023-05-14T03:49:16;2.30;;;2.05;;
64873;SDS011;51367;45.204;38.576;2023-05-14T03:51:42;2.85;;;2.05;;
64873;SDS011;51367;45.204;38.576;2023-05-14T03:54:08;3.53;;;2.10;;
64873;SDS011;51367;45.204;38.576;2023-05-14T03:56:34;3.03;;;2.70;;
64873;SDS011;51367;45.204;38.576;2023-05-14T03:59:01;4.38;;;3.30;;
64873;SDS011;51367;45.204;38.576;2023-05-14T04:01:27;14.27;;;2.20;;
64873;SDS011;51367;45.204;38.576;2023-05-14T04:03:53;7.50;;;3.03;;
64873;SDS011;51367;45.204;38.576;2023-05-14T04:06:20;4.93;;;2.85;;
64873;SDS011;51367;45.204;38.576;2023-05-14T04:08:45;3.05;;;2.55;;
64873;SDS011;51367;45.204;38.576;2023-05-14T04:11:11;5.78;;;4.45;;
64873;SDS011;51367;45.204;38.576;2023-05-14T04:13:37;6.78;;;4.28;;
64873;SDS011;51367;45.204;38.576;2023-05-14T04:16:03;4.15;;;2.78;;
64873;SDS011;51367;45.204;38.576;2023-05-14T04:18:29;3.58;;;2.95;;
64873;SDS011;51367;45.204;38.576;2023-05-14T04:20:59;9.48;;;2.45;;
64873;SDS011;51367;45.204;38.576;2023-05-14T04:23:25;3.90;;;2.78;;
64873;SDS011;51367;45.204;38.576;2023-05-14T04:25:51;9.77;;;5.28;;
64873;SDS011;51367;45.204;38.576;2023-05-14T04:28:17;3.88;;;2.80;;
64873;SDS011;51367;45.204;38.576;2023-05-14T04:30:43;2.65;;;2.45;;
64873;SDS011;51367;45.204;38.576;2023-05-14T04:33:09;6.93;;;2.85;;
64873;SDS011;51367;45.204;38.576;2023-05-14T04:35:35;11.30;;;6.82;;
64873;SDS011;51367;45.204;38.576;2023-05-14T04:38:01;14.55;;;4.75;;
64873;SDS011;51367;45.204;38.576;2023-05-14T04:40:27;13.05;;;4.13;;
64873;SDS011;51367;45.204;38.576;2023-05-14T04:42:55;8.88;;;6.45;;
64873;SDS011;51367;45.204;38.576;2023-05-14T04:45:21;8.85;;;5.70;;
64873;SDS011;51367;45.204;38.576;2023-05-14T04:47:47;21.45;;;7.80;;
64873;SDS011;51367;45.204;38.576;2023-05-14T04:50:13;6.95;;;5.05;;
64873;SDS011;51367;45.204;38.576;2023-05-14T04:52:39;10.00;;;7.43;;
64873;SDS011;51367;45.204;38.576;2023-05-14T04:55:06;5.75;;;3.53;;
64873;SDS011;51367;45.204;38.576;2023-05-14T04:57:32;2.53;;;2.33;;
64873;SDS011;51367;45.204;38.576;2023-05-14T04:59:58;5.13;;;4.03;;
64873;SDS011;51367;45.204;38.576;2023-05-14T05:02:24;2.53;;;2.25;;
64873;SDS011;51367;45.204;38.576;2023-05-14T05:04:50;6.40;;;4.53;;
64873;SDS011;51367;45.204;38.576;2023-05-14T05:07:16;6.38;;;4.18;;
64873;SDS011;51367;45.204;38.576;2023-05-14T05:09:42;3.90;;;2.55;;
64873;SDS011;51367;45.204;38.576;2023-05-14T05:12:08;2.47;;;2.20;;
64873;SDS011;51367;45.204;38.576;2023-05-14T05:14:34;2.40;;;2.20;;
64873;SDS011;51367;45.204;38.576;2023-05-14T05:17:00;7.80;;;5.00;;
64873;SDS011;51367;45.204;38.576;2023-05-14T05:19:26;6.07;;;3.35;;
64873;SDS011;51367;45.204;38.576;2023-05-14T05:21:52;2.67;;;2.42;;
64873;SDS011;51367;45.204;38.576;2023-05-14T05:24:18;2.00;;;1.90;;
64873;SDS011;51367;45.204;38.576;2023-05-14T05:26:44;10.90;;;7.20;;
64873;SDS011;51367;45.204;38.576;2023-05-14T05:29:10;1.98;;;1.38;;
64873;SDS011;51367;45.204;38.576;2023-05-14T05:31:36;1.52;;;1.42;;
64873;SDS011;51367;45.204;38.576;2023-05-14T05:34:02;1.85;;;1.65;;
64873;SDS011;51367;45.204;38.576;2023-05-14T05:36:28;2.28;;;2.08;;
64873;SDS011;51367;45.204;38.576;2023-05-14T05:38:54;3.97;;;2.67;;
64873;SDS011;51367;45.204;38.576;2023-05-14T05:41:20;2.42;;;2.10;;
64873;SDS011;51367;45.204;38.576;2023-05-14T05:43:46;7.25;;;2.83;;
64873;SDS011;51367;45.204;38.576;2023-05-14T05:46:12;2.63;;;1.80;;
64873;SDS011;51367;45.204;38.576;2023-05-14T05:48:38;3.33;;;2.15;;
64873;SDS011;51367;45.204;38.576;2023-05-14T05:51:04;2.17;;;2.05;;
64873;SDS011;51367;45.204;38.576;2023-05-14T05:53:30;4.32;;;3.28;;
64873;SDS011;51367;45.204;38.576;2023-05-14T05:55:56;6.63;;;1.50;;
64873;SDS011;51367;45.204;38.576;2023-05-14T05:58:22;1.30;;;1.20;;
64873;SDS011;51367;45.204;38.576;2023-05-14T06:00:47;1.83;;;1.50;;
64873;SDS011;51367;45.204;38.576;2023-05-14T06:03:13;1.38;;;1.30;;
64873;SDS011;51367;45.204;38.576;2023-05-14T06:05:40;1.95;;;1.85;;
64873;SDS011;51367;45.204;38.576;2023-05-14T06:08:06;2.92;;;1.92;;
64873;SDS011;51367;45.204;38.576;2023-05-14T06:10:32;1.70;;;1.60;;
64873;SDS011;51367;45.204;38.576;2023-05-14T06:12:58;3.67;;;1.92;;
64873;SDS011;51367;45.204;38.576;2023-05-14T06:15:24;1.95;;;1.50;;
64873;SDS011;51367;45.204;38.576;2023-05-14T06:17:50;4.68;;;2.20;;
64873;SDS011;51367;45.204;38.576;2023-05-14T06:20:16;2.55;;;2.35;;
64873;SDS011;51367;45.204;38.576;2023-05-14T06:22:42;2.78;;;1.98;;
64873;SDS011;51367;45.204;38.576;2023-05-14T06:25:08;2.28;;;2.05;;
64873;SDS011;51367;45.204;38.576;2023-05-14T06:27:34;2.50;;;1.52;;
64873;SDS011;51367;45.204;38.576;2023-05-14T06:30:00;2.03;;;1.58;;
64873;SDS011;51367;45.204;38.576;2023-05-14T06:32:26;4.55;;;1.60;;
64873;SDS011;51367;45.204;38.576;2023-05-14T06:34:52;2.13;;;1.88;;
64873;SDS011;51367;45.204;38.576;2023-05-14T06:37:18;1.55;;;1.45;;
64873;SDS011;51367;45.204;38.576;2023-05-14T06:39:44;4.10;;;1.67;;
64873;SDS011;51367;45.204;38.576;2023-05-14T06:42:14;1.77;;;1.55;;
64873;SDS011;51367;45.204;38.576;2023-05-14T06:44:41;2.03;;;1.48;;
64873;SDS011;51367;45.204;38.576;2023-05-14T06:47:07;1.50;;;1.15;;
64873;SDS011;51367;45.204;38.576;2023-05-14T06:49:33;1.30;;;1.20;;
64873;SDS011;51367;45.204;38.576;2023-05-14T06:51:59;1.77;;;1.58;;
64873;SDS011;51367;45.204;38.576;2023-05-14T06:54:26;1.33;;;1.27;;
64873;SDS011;51367;45.204;38.576;2023-05-14T06:56:52;1.70;;;1.23;;
64873;SDS011;51367;45.204;38.576;2023-05-14T06:59:18;8.38;;;2.00;;
64873;SDS011;51367;45.204;38.576;2023-05-14T07:01:44;1.85;;;1.75;;
64873;SDS011;51367;45.204;38.576;2023-05-14T07:04:10;1.38;;;1.27;;
64873;SDS011;51367;45.204;38.576;2023-05-14T07:06:36;1.35;;;1.25;;
64873;SDS011;51367;45.204;38.576;2023-05-14T07:09:02;4.15;;;2.08;;
64873;SDS011;51367;45.204;38.576;2023-05-14T07:11:28;1.75;;;1.65;;
64873;SDS011;51367;45.204;38.576;2023-05-14T07:13:54;2.22;;;1.48;;
64873;SDS011;51367;45.204;38.576;2023-05-14T07:16:20;2.17;;;1.98;;
64873;SDS011;51367;45.204;38.576;2023-05-14T07:18:46;1.77;;;1.63;;
64873;SDS011;51367;45.204;38.576;2023-05-14T07:21:12;2.30;;;2.05;;
64873;SDS011;51367;45.204;38.576;2023-05-14T07:23:38;14.70;;;2.03;;
64873;SDS011;51367;45.204;38.576;2023-05-14T07:26:04;3.38;;;1.65;;
64873;SDS011;51367;45.204;38.576;2023-05-14T07:28:31;2.58;;;2.15;;
64873;SDS011;51367;45.204;38.576;2023-05-14T07:30:57;3.28;;;1.67;;
64873;SDS011;51367;45.204;38.576;2023-05-14T07:33:23;2.28;;;1.42;;
64873;SDS011;51367;45.204;38.576;2023-05-14T07:35:49;1.90;;;1.70;;
64873;SDS011;51367;45.204;38.576;2023-05-14T07:38:16;1.40;;;1.30;;
64873;SDS011;51367;45.204;38.576;2023-05-14T07:40:42;1.73;;;1.58;;
64873;SDS011;51367;45.204;38.576;2023-05-14T07:43:11;2.13;;;1.63;;
64873;SDS011;51367;45.204;38.576;2023-05-14T07:45:38;1.52;;;1.42;;
64873;SDS011;51367;45.204;38.576;2023-05-14T07:48:04;1.52;;;1.05;;
64873;SDS011;51367;45.204;38.576;2023-05-14T07:50:30;3.72;;;2.50;;
64873;SDS011;51367;45.204;38.576;2023-05-14T07:52:56;1.50;;;1.40;;
64873;SDS011;51367;45.204;38.576;2023-05-14T07:55:22;1.42;;;0.93;;
64873;SDS011;51367;45.204;38.576;2023-05-14T07:57:48;1.20;;;0.98;;
64873;SDS011;51367;45.204;38.576;2023-05-14T08:00:14;1.75;;;1.27;;
64873;SDS011;51367;45.204;38.576;2023-05-14T08:02:41;1.63;;;0.93;;
64873;SDS011;51367;45.204;38.576;2023-05-14T08:05:07;0.70;;;0.70;;
64873;SDS011;51367;45.204;38.576;2023-05-14T08:07:34;1.30;;;1.10;;
64873;SDS011;51367;45.204;38.576;2023-05-14T08:10:00;1.38;;;1.00;;
64873;SDS011;51367;45.204;38.576;2023-05-14T08:12:26;2.50;;;1.13;;
64873;SDS011;51367;45.204;38.576;2023-05-14T08:14:53;1.58;;;1.23;;
64873;SDS011;51367;45.204;38.576;2023-05-14T08:17:20;4.30;;;0.90;;
64873;SDS011;51367;45.204;38.576;2023-05-14T08:19:46;1.00;;;1.00;;
64873;SDS011;51367;45.204;38.576;2023-05-14T08:22:13;1.20;;;1.10;;
64873;SDS011;51367;45.204;38.576;2023-05-14T08:24:39;2.28;;;1.08;;
64873;SDS011;51367;45.204;38.576;2023-05-14T08:27:07;1.92;;;1.58;;
64873;SDS011;51367;45.204;38.576;2023-05-14T08:29:33;1.63;;;1.20;;
64873;SDS011;51367;45.204;38.576;2023-05-14T08:31:59;1.60;;;0.90;;
64873;SDS011;51367;45.204;38.576;2023-05-14T08:34:25;1.00;;;1.00;;
64873;SDS011;51367;45.204;38.576;2023-05-14T08:36:52;1.55;;;0.88;;
64873;SDS011;51367;45.204;38.576;2023-05-14T08:39:18;1.23;;;1.13;;
64873;SDS011;51367;45.204;38.576;2023-05-14T08:41:44;1.25;;;1.00;;
64873;SDS011;51367;45.204;38.576;2023-05-14T08:46:47;2.78;;;1.83;;
64873;SDS011;51367;45.204;38.576;2023-05-14T08:51:42;1.15;;;1.05;;
64873;SDS011;51367;45.204;38.576;2023-05-14T08:54:11;1.08;;;1.00;;
64873;SDS011;51367;45.204;38.576;2023-05-14T08:56:41;2.53;;;1.27;;
64873;SDS011;51367;45.204;38.576;2023-05-14T08:59:09;1.35;;;1.25;;
64873;SDS011;51367;45.204;38.576;2023-05-14T09:01:36;2.88;;;1.10;;
64873;SDS011;51367;45.204;38.576;2023-05-14T09:04:05;3.50;;;1.20;;
64873;SDS011;51367;45.204;38.576;2023-05-14T09:06:36;0.77;;;0.77;;
64873;SDS011;51367;45.204;38.576;2023-05-14T09:09:02;1.30;;;1.20;;
64873;SDS011;51367;45.204;38.576;2023-05-14T09:11:29;1.00;;;1.00;;
64873;SDS011;51367;45.204;38.576;2023-05-14T09:13:54;1.85;;;1.60;;
64873;SDS011;51367;45.204;38.576;2023-05-14T09:16:21;1.40;;;1.30;;
64873;SDS011;51367;45.204;38.576;2023-05-14T09:18:48;1.58;;;1.48;;
64873;SDS011;51367;45.204;38.576;2023-05-14T09:21:15;2.42;;;1.35;;
64873;SDS011;51367;45.204;38.576;2023-05-14T09:23:43;1.05;;;0.95;;
64873;SDS011;51367;45.204;38.576;2023-05-14T09:26:09;1.30;;;1.20;;
64873;SDS011;51367;45.204;38.576;2023-05-14T09:28:39;2.55;;;1.63;;
64873;SDS011;51367;45.204;38.576;2023-05-14T09:31:08;2.77;;;1.30;;
64873;SDS011;51367;45.204;38.576;2023-05-14T09:33:34;4.82;;;1.35;;
64873;SDS011;51367;45.204;38.576;2023-05-14T09:36:01;1.63;;;1.30;;
64873;SDS011;51367;45.204;38.576;2023-05-14T09:38:30;1.13;;;1.05;;
64873;SDS011;51367;45.204;38.576;2023-05-14T09:40:57;1.95;;;1.23;;
64873;SDS011;51367;45.204;38.576;2023-05-14T09:43:24;1.67;;;1.40;;
64873;SDS011;51367;45.204;38.576;2023-05-14T09:45:50;1.27;;;1.23;;
64873;SDS011;51367;45.204;38.576;2023-05-14T09:48:17;2.35;;;1.80;;
64873;SDS011;51367;45.204;38.576;2023-05-14T09:50:44;1.27;;;1.17;;
64873;SDS011;51367;45.204;38.576;2023-05-14T09:53:11;1.30;;;1.20;;
64873;SDS011;51367;45.204;38.576;2023-05-14T09:55:38;1.83;;;1.73;;
64873;SDS011;51367;45.204;38.576;2023-05-14T09:58:04;1.50;;;1.40;;
64873;SDS011;51367;45.204;38.576;2023-05-14T10:00:31;1.33;;;1.23;;
64873;SDS011;51367;45.204;38.576;2023-05-14T10:03:03;0.90;;;0.90;;
64873;SDS011;51367;45.204;38.576;2023-05-14T10:05:35;11.50;;;1.33;;
64873;SDS011;51367;45.204;38.576;2023-05-14T10:08:07;0.77;;;0.77;;
64873;SDS011;51367;45.204;38.576;2023-05-14T10:10:37;0.75;;;0.75;;
64873;SDS011;51367;45.204;38.576;2023-05-14T10:13:04;1.50;;;1.40;;
64873;SDS011;51367;45.204;38.576;2023-05-14T10:15:48;1.13;;;1.13;;
64873;SDS011;51367;45.204;38.576;2023-05-14T10:18:22;0.95;;;0.95;;
64873;SDS011;51367;45.204;38.576;2023-05-14T10:20:55;0.93;;;0.93;;
64873;SDS011;51367;45.204;38.576;2023-05-14T10:23:28;1.10;;;0.90;;
64873;SDS011;51367;45.204;38.576;2023-05-14T10:25:55;2.90;;;0.98;;
64873;SDS011;51367;45.204;38.576;2023-05-14T10:28:25;0.90;;;0.90;;
64873;SDS011;51367;45.204;38.576;2023-05-14T10:30:52;2.20;;;1.15;;
64873;SDS011;51367;45.204;38.576;2023-05-14T10:33:18;3.10;;;1.10;;
64873;SDS011;51367;45.204;38.576;2023-05-14T10:38:25;0.80;;;0.80;;
64873;SDS011;51367;45.204;38.576;2023-05-14T10:41:01;1.80;;;1.02;;
64873;SDS011;51367;45.204;38.576;2023-05-14T10:43:28;0.82;;;0.82;;
64873;SDS011;51367;45.204;38.576;2023-05-14T10:45:56;3.65;;;1.38;;
64873;SDS011;51367;45.204;38.576;2023-05-14T10:48:23;2.65;;;1.45;;
64873;SDS011;51367;45.204;38.576;2023-05-14T10:50:50;2.20;;;1.17;;
64873;SDS011;51367;45.204;38.576;2023-05-14T10:53:16;1.40;;;1.10;;
64873;SDS011;51367;45.204;38.576;2023-05-14T10:55:43;1.02;;;1.00;;
64873;SDS011;51367;45.204;38.576;2023-05-14T10:58:10;3.13;;;2.15;;
64873;SDS011;51367;45.204;38.576;2023-05-14T11:00:36;1.15;;;1.05;;
64873;SDS011;51367;45.204;38.576;2023-05-14T11:03:04;1.02;;;1.02;;
64873;SDS011;51367;45.204;38.576;2023-05-14T11:05:30;0.80;;;0.80;;
64873;SDS011;51367;45.204;38.576;2023-05-14T11:07:58;0.98;;;0.98;;
64873;SDS011;51367;45.204;38.576;2023-05-14T11:10:26;1.55;;;1.35;;
64873;SDS011;51367;45.204;38.576;2023-05-14T11:12:55;3.00;;;1.20;;
64873;SDS011;51367;45.204;38.576;2023-05-14T11:15:23;1.15;;;1.15;;
64873;SDS011;51367;45.204;38.576;2023-05-14T11:17:53;2.10;;;1.20;;
64873;SDS011;51367;45.204;38.576;2023-05-14T11:20:19;2.40;;;1.20;;
64873;SDS011;51367;45.204;38.576;2023-05-14T11:22:46;0.80;;;0.80;;
64873;SDS011;51367;45.204;38.576;2023-05-14T11:25:13;1.27;;;1.17;;
64873;SDS011;51367;45.204;38.576;2023-05-14T11:27:41;1.00;;;1.00;;
64873;SDS011;51367;45.204;38.576;2023-05-14T11:30:12;2.25;;;1.65;;
64873;SDS011;51367;45.204;38.576;2023-05-14T11:32:42;2.85;;;0.82;;
64873;SDS011;51367;45.204;38.576;2023-05-14T11:35:09;0.75;;;0.75;;
64873;SDS011;51367;45.204;38.576;2023-05-14T11:37:36;4.90;;;1.77;;
64873;SDS011;51367;45.204;38.576;2023-05-14T11:40:05;0.80;;;0.80;;
64873;SDS011;51367;45.204;38.576;2023-05-14T11:42:34;1.05;;;0.98;;
64873;SDS011;51367;45.204;38.576;2023-05-14T11:45:01;1.17;;;1.08;;
64873;SDS011;51367;45.204;38.576;2023-05-14T11:47:28;0.90;;;0.85;;
64873;SDS011;51367;45.204;38.576;2023-05-14T11:49:55;1.27;;;1.17;;
64873;SDS011;51367;45.204;38.576;2023-05-14T11:52:21;1.10;;;1.00;;
64873;SDS011;51367;45.204;38.576;2023-05-14T11:54:47;0.70;;;0.70;;
64873;SDS011;51367;45.204;38.576;2023-05-14T11:57:17;1.85;;;0.98;;
64873;SDS011;51367;45.204;38.576;2023-05-14T11:59:44;3.05;;;1.10;;
64873;SDS011;51367;45.204;38.576;2023-05-14T12:02:11;1.00;;;1.00;;
64873;SDS011;51367;45.204;38.576;2023-05-14T12:04:38;1.70;;;1.00;;
64873;SDS011;51367;45.204;38.576;2023-05-14T12:07:12;1.15;;;1.02;;
64873;SDS011;51367;45.204;38.576;2023-05-14T12:09:40;1.30;;;1.20;;
64873;SDS011;51367;45.204;38.576;2023-05-14T12:12:14;1.63;;;1.02;;
64873;SDS011;51367;45.204;38.576;2023-05-14T12:14:45;1.77;;;1.17;;
64873;SDS011;51367;45.204;38.576;2023-05-14T12:19:42;2.33;;;1.10;;
64873;SDS011;51367;45.204;38.576;2023-05-14T12:22:09;1.45;;;1.35;;
64873;SDS011;51367;45.204;38.576;2023-05-14T12:24:36;1.00;;;1.00;;
64873;SDS011;51367;45.204;38.576;2023-05-14T12:27:03;1.10;;;1.10;;
64873;SDS011;51367;45.204;38.576;2023-05-14T12:29:35;1.48;;;1.20;;
64873;SDS011;51367;45.204;38.576;2023-05-14T12:32:06;2.17;;;1.25;;
64873;SDS011;51367;45.204;38.576;2023-05-14T12:34:36;1.50;;;1.08;;
64873;SDS011;51367;45.204;38.576;2023-05-14T12:37:03;0.98;;;0.98;;
64873;SDS011;51367;45.204;38.576;2023-05-14T12:39:31;1.00;;;1.00;;
64873;SDS011;51367;45.204;38.576;2023-05-14T12:41:58;2.92;;;1.00;;
64873;SDS011;51367;45.204;38.576;2023-05-14T12:44:23;1.95;;;1.40;;
64873;SDS011;51367;45.204;38.576;2023-05-14T12:46:49;3.38;;;2.83;;
64873;SDS011;51367;45.204;38.576;2023-05-14T12:49:15;1.65;;;1.55;;
64873;SDS011;51367;45.204;38.576;2023-05-14T12:51:41;1.42;;;1.23;;
64873;SDS011;51367;45.204;38.576;2023-05-14T12:54:07;2.38;;;1.23;;
64873;SDS011;51367;45.204;38.576;2023-05-14T12:56:36;1.23;;;1.13;;
64873;SDS011;51367;45.204;38.576;2023-05-14T12:59:03;1.73;;;1.35;;
64873;SDS011;51367;45.204;38.576;2023-05-14T13:01:29;3.28;;;1.30;;
64873;SDS011;51367;45.204;38.576;2023-05-14T13:03:55;1.85;;;1.17;;
64873;SDS011;51367;45.204;38.576;2023-05-14T13:06:22;8.23;;;4.00;;
64873;SDS011;51367;45.204;38.576;2023-05-14T13:08:48;2.13;;;1.88;;
64873;SDS011;51367;45.204;38.576;2023-05-14T13:11:14;5.13;;;4.65;;
64873;SDS011;51367;45.204;38.576;2023-05-14T13:13:40;3.20;;;1.67;;
64873;SDS011;51367;45.204;38.576;2023-05-14T13:16:06;2.15;;;1.48;;
64873;SDS011;51367;45.204;38.576;2023-05-14T13:18:32;4.05;;;1.30;;
64873;SDS011;51367;45.204;38.576;2023-05-14T13:20:58;3.78;;;2.00;;
64873;SDS011;51367;45.204;38.576;2023-05-14T13:23:24;2.03;;;1.20;;
64873;SDS011;51367;45.204;38.576;2023-05-14T13:25:50;1.90;;;1.33;;
64873;SDS011;51367;45.204;38.576;2023-05-14T13:28:16;1.13;;;1.00;;
64873;SDS011;51367;45.204;38.576;2023-05-14T13:30:44;1.08;;;1.08;;
64873;SDS011;51367;45.204;38.576;2023-05-14T13:33:32;0.77;;;0.77;;
64873;SDS011;51367;45.204;38.576;2023-05-14T13:36:00;2.85;;;1.40;;
64873;SDS011;51367;45.204;38.576;2023-05-14T13:38:26;1.20;;;1.10;;
64873;SDS011;51367;45.204;38.576;2023-05-14T13:41:10;3.42;;;0.70;;
64873;SDS011;51367;45.204;38.576;2023-05-14T13:43:36;0.90;;;0.90;;
64873;SDS011;51367;45.204;38.576;2023-05-14T13:46:03;1.42;;;1.00;;
64873;SDS011;51367;45.204;38.576;2023-05-14T13:48:30;0.88;;;0.88;;
64873;SDS011;51367;45.204;38.576;2023-05-14T13:50:57;1.05;;;0.98;;
64873;SDS011;51367;45.204;38.576;2023-05-14T13:53:23;0.68;;;0.68;;
64873;SDS011;51367;45.204;38.576;2023-05-14T13:55:50;1.27;;;0.70;;
64873;SDS011;51367;45.204;38.576;2023-05-14T13:58:22;2.17;;;1.48;;
64873;SDS011;51367;45.204;38.576;2023-05-14T14:00:49;0.90;;;0.90;;
64873;SDS011;51367;45.204;38.576;2023-05-14T14:03:16;4.30;;;1.30;;
64873;SDS011;51367;45.204;38.576;2023-05-14T14:05:42;1.38;;;1.23;;
64873;SDS011;51367;45.204;38.576;2023-05-14T14:08:08;1.38;;;1.27;;
64873;SDS011;51367;45.204;38.576;2023-05-14T14:10:34;7.47;;;2.13;;
64873;SDS011;51367;45.204;38.576;2023-05-14T14:13:00;5.65;;;2.03;;
64873;SDS011;51367;45.204;38.576;2023-05-14T14:15:26;2.30;;;1.35;;
64873;SDS011;51367;45.204;38.576;2023-05-14T14:17:52;3.55;;;2.10;;
64873;SDS011;51367;45.204;38.576;2023-05-14T14:20:18;1.80;;;1.70;;
64873;SDS011;51367;45.204;38.576;2023-05-14T14:22:44;1.75;;;1.42;;
64873;SDS011;51367;45.204;38.576;2023-05-14T14:25:10;6.85;;;4.82;;
64873;SDS011;51367;45.204;38.576;2023-05-14T14:27:38;3.47;;;2.22;;
64873;SDS011;51367;45.204;38.576;2023-05-14T14:30:08;12.32;;;3.13;;
64873;SDS011;51367;45.204;38.576;2023-05-14T14:32:44;2.47;;;2.10;;
64873;SDS011;51367;45.204;38.576;2023-05-14T14:35:11;6.97;;;3.55;;
64873;SDS011;51367;45.204;38.576;2023-05-14T14:37:39;3.10;;;2.33;;
64873;SDS011;51367;45.204;38.576;2023-05-14T14:40:06;3.90;;;1.88;;
64873;SDS011;51367;45.204;38.576;2023-05-14T14:42:34;1.92;;;1.67;;
64873;SDS011;51367;45.204;38.576;2023-05-14T14:45:00;0.57;;;0.57;;
64873;SDS011;51367;45.204;38.576;2023-05-14T14:47:26;1.63;;;1.10;;
64873;SDS011;51367;45.204;38.576;2023-05-14T14:49:52;1.80;;;1.70;;
64873;SDS011;51367;45.204;38.576;2023-05-14T14:52:18;1.63;;;1.13;;